sensor_id;sensor_type;location;lat;lon;timestamp;P1;durP1;ratioP1;P2;durP2;ratioP2
1701;SDS011;848;48.354;10.064;2024-03-23T00:55:12;7.00;;;4.22;;
1701;SDS011;848;48.354;10.064;2024-03-23T00:57:39;4.55;;;3.78;;
1701;SDS011;848;48.354;10.064;2024-03-23T01:00:06;5.50;;;4.20;;
1701;SDS011;848;48.354;10.064;2024-03-23T01:02:35;3.85;;;3.45;;
1701;SDS011;848;48.354;10.064;2024-03-23T01:05:01;6.00;;;4.10;;
1701;SDS011;848;48.354;10.064;2024-03-23T01:07:28;7.32;;;4.25;;
1701;SDS011;848;48.354;10.064;2024-03-23T01:09:55;7.57;;;5.00;;
1701;SDS011;848;48.354;10.064;2024-03-23T01:12:22;4.65;;;3.90;;
1701;SDS011;848;48.354;10.064;2024-03-23T01:14:48;6.43;;;3.87;;
1701;SDS011;848;48.354;10.064;2024-03-23T01:17:15;8.02;;;4.15;;
1701;SDS011;848;48.354;10.064;2024-03-23T01:19:41;6.17;;;4.10;;
1701;SDS011;848;48.354;10.064;2024-03-23T01:22:07;5.90;;;4.63;;
1701;SDS011;848;48.354;10.064;2024-03-23T01:24:35;5.00;;;3.85;;
1701;SDS011;848;48.354;10.064;2024-03-23T01:27:03;6.90;;;4.05;;
1701;SDS011;848;48.354;10.064;2024-03-23T01:29:29;5.18;;;3.92;;
1701;SDS011;848;48.354;10.064;2024-03-23T01:31:56;4.40;;;3.92;;
1701;SDS011;848;48.354;10.064;2024-03-23T01:34:22;4.60;;;4.00;;
1701;SDS011;848;48.354;10.064;2024-03-23T01:36:50;7.60;;;4.50;;
1701;SDS011;848;48.354;10.064;2024-03-23T01:39:16;5.20;;;3.80;;
1701;SDS011;848;48.354;10.064;2024-03-23T01:41:42;6.80;;;4.50;;
1701;SDS011;848;48.354;10.064;2024-03-23T01:44:10;4.93;;;4.03;;
1701;SDS011;848;48.354;10.064;2024-03-23T01:46:37;5.22;;;4.30;;
1701;SDS011;848;48.354;10.064;2024-03-23T01:49:03;9.38;;;4.90;;
1701;SDS011;848;48.354;10.064;2024-03-23T01:51:31;4.43;;;4.00;;
1701;SDS011;848;48.354;10.064;2024-03-23T01:53:58;6.30;;;4.30;;
1701;SDS011;848;48.354;10.064;2024-03-23T01:56:28;5.32;;;4.45;;
1701;SDS011;848;48.354;10.064;2024-03-23T01:58:55;5.53;;;4.28;;
1701;SDS011;848;48.354;10.064;2024-03-23T02:01:23;6.40;;;4.00;;
1701;SDS011;848;48.354;10.064;2024-03-23T02:03:50;5.90;;;4.18;;
1701;SDS011;848;48.354;10.064;2024-03-23T02:06:17;6.35;;;4.13;;
1701;SDS011;848;48.354;10.064;2024-03-23T02:08:43;4.60;;;3.80;;
1701;SDS011;848;48.354;10.064;2024-03-23T02:11:10;4.57;;;3.78;;
1701;SDS011;848;48.354;10.064;2024-03-23T02:13:36;5.87;;;4.93;;
1701;SDS011;848;48.354;10.064;2024-03-23T02:16:04;4.75;;;3.67;;
1701;SDS011;848;48.354;10.064;2024-03-23T02:18:31;5.63;;;3.45;;
1701;SDS011;848;48.354;10.064;2024-03-23T02:20:59;4.80;;;4.05;;
1701;SDS011;848;48.354;10.064;2024-03-23T02:23:26;4.72;;;3.80;;
1701;SDS011;848;48.354;10.064;2024-03-23T02:25:53;5.80;;;4.00;;
1701;SDS011;848;48.354;10.064;2024-03-23T02:28:19;6.90;;;4.53;;
1701;SDS011;848;48.354;10.064;2024-03-23T02:30:47;4.68;;;4.20;;
1701;SDS011;848;48.354;10.064;2024-03-23T02:33:13;10.23;;;4.13;;
1701;SDS011;848;48.354;10.064;2024-03-23T02:35:40;3.88;;;3.30;;
1701;SDS011;848;48.354;10.064;2024-03-23T02:38:06;4.17;;;3.77;;
1701;SDS011;848;48.354;10.064;2024-03-23T02:40:34;5.13;;;3.40;;
1701;SDS011;848;48.354;10.064;2024-03-23T02:43:02;4.40;;;3.75;;
1701;SDS011;848;48.354;10.064;2024-03-23T02:45:29;4.93;;;4.43;;
1701;SDS011;848;48.354;10.064;2024-03-23T02:47:54;4.67;;;3.70;;
1701;SDS011;848;48.354;10.064;2024-03-23T02:50:21;4.40;;;3.60;;
1701;SDS011;848;48.354;10.064;2024-03-23T02:52:47;6.23;;;3.70;;
1701;SDS011;848;48.354;10.064;2024-03-23T02:55:14;4.80;;;3.40;;
1701;SDS011;848;48.354;10.064;2024-03-23T02:57:42;5.80;;;4.15;;
1701;SDS011;848;48.354;10.064;2024-03-23T03:00:09;4.70;;;4.30;;
1701;SDS011;848;48.354;10.064;2024-03-23T03:02:36;5.18;;;3.97;;
1701;SDS011;848;48.354;10.064;2024-03-23T03:05:03;4.22;;;3.85;;
1701;SDS011;848;48.354;10.064;2024-03-23T03:07:30;4.40;;;4.00;;
1701;SDS011;848;48.354;10.064;2024-03-23T03:09:57;5.57;;;4.28;;
1701;SDS011;848;48.354;10.064;2024-03-23T03:12:22;6.00;;;3.57;;
1701;SDS011;848;48.354;10.064;2024-03-23T03:14:51;5.78;;;4.22;;
1701;SDS011;848;48.354;10.064;2024-03-23T03:17:17;10.68;;;4.22;;
1701;SDS011;848;48.354;10.064;2024-03-23T03:19:44;4.88;;;3.60;;
1701;SDS011;848;48.354;10.064;2024-03-23T03:22:10;6.20;;;4.43;;
1701;SDS011;848;48.354;10.064;2024-03-23T03:24:37;7.88;;;4.07;;
1701;SDS011;848;48.354;10.064;2024-03-23T03:27:03;5.20;;;4.70;;
1701;SDS011;848;48.354;10.064;2024-03-23T03:29:31;5.32;;;4.03;;
1701;SDS011;848;48.354;10.064;2024-03-23T03:32:02;5.93;;;4.80;;
1701;SDS011;848;48.354;10.064;2024-03-23T03:34:29;7.72;;;4.30;;
1701;SDS011;848;48.354;10.064;2024-03-23T03:36:55;7.13;;;4.35;;
1701;SDS011;848;48.354;10.064;2024-03-23T03:39:22;5.07;;;4.05;;
1701;SDS011;848;48.354;10.064;2024-03-23T03:41:48;6.00;;;4.70;;
1701;SDS011;848;48.354;10.064;2024-03-23T03:44:15;4.95;;;4.15;;
1701;SDS011;848;48.354;10.064;2024-03-23T03:46:41;6.00;;;4.25;;
1701;SDS011;848;48.354;10.064;2024-03-23T03:49:10;6.20;;;3.80;;
1701;SDS011;848;48.354;10.064;2024-03-23T03:51:36;4.40;;;3.88;;
1701;SDS011;848;48.354;10.064;2024-03-23T03:54:03;6.82;;;4.35;;
1701;SDS011;848;48.354;10.064;2024-03-23T03:56:28;4.57;;;3.97;;
1701;SDS011;848;48.354;10.064;2024-03-23T03:58:55;4.93;;;4.00;;
1701;SDS011;848;48.354;10.064;2024-03-23T04:01:21;5.70;;;3.47;;
1701;SDS011;848;48.354;10.064;2024-03-23T04:03:48;6.10;;;4.43;;
1701;SDS011;848;48.354;10.064;2024-03-23T04:06:19;5.07;;;4.57;;
1701;SDS011;848;48.354;10.064;2024-03-23T04:08:46;4.28;;;3.80;;
1701;SDS011;848;48.354;10.064;2024-03-23T04:11:12;5.30;;;4.23;;
1701;SDS011;848;48.354;10.064;2024-03-23T04:13:39;5.68;;;3.92;;
1701;SDS011;848;48.354;10.064;2024-03-23T04:16:06;5.45;;;4.22;;
1701;SDS011;848;48.354;10.064;2024-03-23T04:18:34;4.85;;;3.88;;
1701;SDS011;848;48.354;10.064;2024-03-23T04:21:00;7.00;;;4.38;;
1701;SDS011;848;48.354;10.064;2024-03-23T04:23:29;4.75;;;3.95;;
1701;SDS011;848;48.354;10.064;2024-03-23T04:25:55;6.43;;;4.22;;
1701;SDS011;848;48.354;10.064;2024-03-23T04:28:22;5.00;;;4.10;;
1701;SDS011;848;48.354;10.064;2024-03-23T04:30:48;5.57;;;4.40;;
1701;SDS011;848;48.354;10.064;2024-03-23T04:33:15;4.72;;;4.13;;
1701;SDS011;848;48.354;10.064;2024-03-23T04:35:41;5.30;;;3.87;;
1701;SDS011;848;48.354;10.064;2024-03-23T04:38:08;9.38;;;3.70;;
1701;SDS011;848;48.354;10.064;2024-03-23T04:40:36;5.80;;;3.40;;
1701;SDS011;848;48.354;10.064;2024-03-23T04:43:03;4.97;;;3.60;;
1701;SDS011;848;48.354;10.064;2024-03-23T04:45:30;8.15;;;3.92;;
1701;SDS011;848;48.354;10.064;2024-03-23T04:47:57;5.50;;;3.45;;
1701;SDS011;848;48.354;10.064;2024-03-23T04:50:23;4.43;;;4.03;;
1701;SDS011;848;48.354;10.064;2024-03-23T04:52:50;5.80;;;3.95;;
1701;SDS011;848;48.354;10.064;2024-03-23T04:55:16;5.75;;;4.10;;
1701;SDS011;848;48.354;10.064;2024-03-23T04:57:45;5.80;;;4.10;;
1701;SDS011;848;48.354;10.064;2024-03-23T05:00:11;5.68;;;3.40;;
1701;SDS011;848;48.354;10.064;2024-03-23T05:02:43;4.72;;;3.97;;
1701;SDS011;848;48.354;10.064;2024-03-23T05:05:11;5.65;;;3.72;;
1701;SDS011;848;48.354;10.064;2024-03-23T05:07:37;3.83;;;3.53;;
1701;SDS011;848;48.354;10.064;2024-03-23T05:10:04;5.22;;;4.00;;
1701;SDS011;848;48.354;10.064;2024-03-23T05:12:31;5.53;;;3.78;;
1701;SDS011;848;48.354;10.064;2024-03-23T05:14:59;4.90;;;4.38;;
1701;SDS011;848;48.354;10.064;2024-03-23T05:17:25;4.45;;;3.65;;
1701;SDS011;848;48.354;10.064;2024-03-23T05:19:51;10.52;;;4.25;;
1701;SDS011;848;48.354;10.064;2024-03-23T05:22:17;4.17;;;3.77;;
1701;SDS011;848;48.354;10.064;2024-03-23T05:24:44;4.35;;;3.95;;
1701;SDS011;848;48.354;10.064;2024-03-23T05:27:10;4.40;;;4.00;;
1701;SDS011;848;48.354;10.064;2024-03-23T05:29:37;5.43;;;4.10;;
1701;SDS011;848;48.354;10.064;2024-03-23T05:32:05;4.57;;;3.80;;
1701;SDS011;848;48.354;10.064;2024-03-23T05:34:32;5.00;;;3.80;;
1701;SDS011;848;48.354;10.064;2024-03-23T05:36:58;7.03;;;4.30;;
1701;SDS011;848;48.354;10.064;2024-03-23T05:39:25;5.85;;;4.22;;
1701;SDS011;848;48.354;10.064;2024-03-23T05:41:51;4.68;;;3.60;;
1701;SDS011;848;48.354;10.064;2024-03-23T05:44:18;4.50;;;3.70;;
1701;SDS011;848;48.354;10.064;2024-03-23T05:46:44;5.30;;;4.43;;
1701;SDS011;848;48.354;10.064;2024-03-23T05:49:15;4.97;;;3.00;;
1701;SDS011;848;48.354;10.064;2024-03-23T05:51:49;5.00;;;3.85;;
1701;SDS011;848;48.354;10.064;2024-03-23T05:54:45;4.43;;;4.03;;
1701;SDS011;848;48.354;10.064;2024-03-23T05:57:11;5.80;;;4.17;;
1701;SDS011;848;48.354;10.064;2024-03-23T05:59:38;5.25;;;3.70;;
1701;SDS011;848;48.354;10.064;2024-03-23T06:02:04;5.37;;;3.70;;
1701;SDS011;848;48.354;10.064;2024-03-23T06:04:33;28.20;;;9.05;;
1701;SDS011;848;48.354;10.064;2024-03-23T06:06:59;6.35;;;4.45;;
1701;SDS011;848;48.354;10.064;2024-03-23T06:09:26;5.10;;;3.75;;
1701;SDS011;848;48.354;10.064;2024-03-23T06:11:52;7.73;;;3.63;;
1701;SDS011;848;48.354;10.064;2024-03-23T06:14:19;4.20;;;3.55;;
1701;SDS011;848;48.354;10.064;2024-03-23T06:16:45;5.95;;;3.97;;
1701;SDS011;848;48.354;10.064;2024-03-23T06:19:12;3.92;;;3.55;;
1701;SDS011;848;48.354;10.064;2024-03-23T06:21:43;9.83;;;3.17;;
1701;SDS011;848;48.354;10.064;2024-03-23T06:24:10;3.30;;;2.60;;
1701;SDS011;848;48.354;10.064;2024-03-23T06:26:36;3.70;;;3.20;;
1701;SDS011;848;48.354;10.064;2024-03-23T06:29:03;2.97;;;2.63;;
1701;SDS011;848;48.354;10.064;2024-03-23T06:31:30;5.82;;;3.22;;
1701;SDS011;848;48.354;10.064;2024-03-23T06:33:57;3.90;;;3.50;;
1701;SDS011;848;48.354;10.064;2024-03-23T06:36:23;6.63;;;3.87;;
1701;SDS011;848;48.354;10.064;2024-03-23T06:42:15;4.60;;;3.70;;
1701;SDS011;848;48.354;10.064;2024-03-23T06:44:43;8.40;;;3.50;;
1701;SDS011;848;48.354;10.064;2024-03-23T06:47:11;4.38;;;2.83;;
1701;SDS011;848;48.354;10.064;2024-03-23T06:49:36;5.33;;;4.83;;
1701;SDS011;848;48.354;10.064;2024-03-23T06:52:03;5.22;;;4.70;;
1701;SDS011;848;48.354;10.064;2024-03-23T06:54:30;7.50;;;4.10;;
1701;SDS011;848;48.354;10.064;2024-03-23T06:56:56;3.05;;;2.67;;
1701;SDS011;848;48.354;10.064;2024-03-23T06:59:24;4.17;;;3.50;;
1701;SDS011;848;48.354;10.064;2024-03-23T07:01:50;2.78;;;2.53;;
1701;SDS011;848;48.354;10.064;2024-03-23T07:04:16;3.80;;;3.40;;
1701;SDS011;848;48.354;10.064;2024-03-23T07:06:43;4.95;;;3.00;;
1701;SDS011;848;48.354;10.064;2024-03-23T07:09:09;3.25;;;2.42;;
1701;SDS011;848;48.354;10.064;2024-03-23T07:11:36;2.22;;;2.05;;
1701;SDS011;848;48.354;10.064;2024-03-23T07:14:03;4.57;;;2.55;;
1701;SDS011;848;48.354;10.064;2024-03-23T07:16:31;2.25;;;1.25;;
1701;SDS011;848;48.354;10.064;2024-03-23T07:18:57;2.08;;;1.38;;
1701;SDS011;848;48.354;10.064;2024-03-23T07:21:24;3.63;;;1.38;;
1701;SDS011;848;48.354;10.064;2024-03-23T07:23:49;12.80;;;6.50;;
1701;SDS011;848;48.354;10.064;2024-03-23T07:26:16;1.55;;;1.45;;
1701;SDS011;848;48.354;10.064;2024-03-23T07:28:43;1.50;;;1.40;;
1701;SDS011;848;48.354;10.064;2024-03-23T07:31:11;2.10;;;1.92;;
1701;SDS011;848;48.354;10.064;2024-03-23T07:33:43;1.40;;;1.30;;
1701;SDS011;848;48.354;10.064;2024-03-23T07:36:11;1.60;;;1.30;;
1701;SDS011;848;48.354;10.064;2024-03-23T07:38:37;3.00;;;2.55;;
1701;SDS011;848;48.354;10.064;2024-03-23T07:41:06;2.08;;;1.70;;
1701;SDS011;848;48.354;10.064;2024-03-23T07:43:33;3.90;;;2.55;;
1701;SDS011;848;48.354;10.064;2024-03-23T07:46:00;2.58;;;2.10;;
1701;SDS011;848;48.354;10.064;2024-03-23T07:48:26;3.97;;;2.10;;
1701;SDS011;848;48.354;10.064;2024-03-23T07:50:59;1.95;;;1.38;;
1701;SDS011;848;48.354;10.064;2024-03-23T07:53:26;1.77;;;1.60;;
1701;SDS011;848;48.354;10.064;2024-03-23T07:55:56;2.00;;;1.83;;
1701;SDS011;848;48.354;10.064;2024-03-23T07:58:23;2.28;;;2.08;;
1701;SDS011;848;48.354;10.064;2024-03-23T08:00:50;1.70;;;1.60;;
1701;SDS011;848;48.354;10.064;2024-03-23T08:03:16;1.47;;;1.37;;
1701;SDS011;848;48.354;10.064;2024-03-23T08:05:43;1.30;;;1.20;;
1701;SDS011;848;48.354;10.064;2024-03-23T08:08:10;1.10;;;1.00;;
1701;SDS011;848;48.354;10.064;2024-03-23T08:10:37;1.45;;;1.35;;
1701;SDS011;848;48.354;10.064;2024-03-23T08:13:12;2.28;;;1.13;;
1701;SDS011;848;48.354;10.064;2024-03-23T08:15:38;1.15;;;1.10;;
1701;SDS011;848;48.354;10.064;2024-03-23T08:18:04;1.10;;;0.83;;
1701;SDS011;848;48.354;10.064;2024-03-23T08:20:31;0.88;;;0.80;;
1701;SDS011;848;48.354;10.064;2024-03-23T08:22:57;2.60;;;1.07;;
1701;SDS011;848;48.354;10.064;2024-03-23T08:25:25;0.70;;;0.50;;
1701;SDS011;848;48.354;10.064;2024-03-23T08:27:51;0.77;;;0.50;;
1701;SDS011;848;48.354;10.064;2024-03-23T08:30:18;0.40;;;0.40;;
1701;SDS011;848;48.354;10.064;2024-03-23T08:32:44;1.03;;;0.40;;
1701;SDS011;848;48.354;10.064;2024-03-23T08:35:11;0.40;;;0.40;;
1701;SDS011;848;48.354;10.064;2024-03-23T08:37:37;0.87;;;0.50;;
1701;SDS011;848;48.354;10.064;2024-03-23T08:40:04;0.40;;;0.30;;
1701;SDS011;848;48.354;10.064;2024-03-23T08:42:32;0.80;;;0.80;;
1701;SDS011;848;48.354;10.064;2024-03-23T08:44:59;0.40;;;0.28;;
1701;SDS011;848;48.354;10.064;2024-03-23T08:47:25;0.60;;;0.60;;
1701;SDS011;848;48.354;10.064;2024-03-23T08:49:52;0.55;;;0.55;;
1701;SDS011;848;48.354;10.064;2024-03-23T08:52:18;0.80;;;0.40;;
1701;SDS011;848;48.354;10.064;2024-03-23T08:54:45;0.80;;;0.50;;
1701;SDS011;848;48.354;10.064;2024-03-23T08:57:11;0.40;;;0.30;;
1701;SDS011;848;48.354;10.064;2024-03-23T08:59:39;0.90;;;0.60;;
1701;SDS011;848;48.354;10.064;2024-03-23T09:02:05;0.60;;;0.30;;
1701;SDS011;848;48.354;10.064;2024-03-23T09:04:32;0.40;;;0.30;;
1701;SDS011;848;48.354;10.064;2024-03-23T09:06:58;0.50;;;0.40;;
1701;SDS011;848;48.354;10.064;2024-03-23T09:09:25;1.70;;;0.40;;
1701;SDS011;848;48.354;10.064;2024-03-23T09:11:51;0.50;;;0.40;;
1701;SDS011;848;48.354;10.064;2024-03-23T09:14:18;1.80;;;0.50;;
1701;SDS011;848;48.354;10.064;2024-03-23T09:16:45;0.35;;;0.30;;
1701;SDS011;848;48.354;10.064;2024-03-23T09:19:12;0.70;;;0.40;;
1701;SDS011;848;48.354;10.064;2024-03-23T09:21:38;1.13;;;0.30;;
1701;SDS011;848;48.354;10.064;2024-03-23T09:24:05;1.30;;;0.55;;
1701;SDS011;848;48.354;10.064;2024-03-23T09:26:31;1.38;;;0.60;;
1701;SDS011;848;48.354;10.064;2024-03-23T09:28:58;0.50;;;0.50;;
1701;SDS011;848;48.354;10.064;2024-03-23T09:31:24;2.20;;;0.60;;
1701;SDS011;848;48.354;10.064;2024-03-23T09:33:52;0.73;;;0.70;;
1701;SDS011;848;48.354;10.064;2024-03-23T09:36:18;1.83;;;0.60;;
1701;SDS011;848;48.354;10.064;2024-03-23T09:38:45;1.98;;;0.80;;
1701;SDS011;848;48.354;10.064;2024-03-23T09:41:10;1.53;;;0.87;;
1701;SDS011;848;48.354;10.064;2024-03-23T09:43:39;1.35;;;1.13;;
1701;SDS011;848;48.354;10.064;2024-03-23T09:46:05;1.57;;;1.13;;
1701;SDS011;848;48.354;10.064;2024-03-23T09:48:32;2.83;;;0.82;;
1701;SDS011;848;48.354;10.064;2024-03-23T09:51:00;2.88;;;0.68;;
1701;SDS011;848;48.354;10.064;2024-03-23T09:53:28;3.45;;;0.77;;
1701;SDS011;848;48.354;10.064;2024-03-23T09:55:54;1.73;;;0.70;;
1701;SDS011;848;48.354;10.064;2024-03-23T09:58:23;6.05;;;1.25;;
1701;SDS011;848;48.354;10.064;2024-03-23T10:00:49;1.17;;;1.02;;
1701;SDS011;848;48.354;10.064;2024-03-23T10:03:16;1.75;;;1.10;;
1701;SDS011;848;48.354;10.064;2024-03-23T10:05:41;1.50;;;0.83;;
1701;SDS011;848;48.354;10.064;2024-03-23T10:08:19;3.95;;;1.65;;
1701;SDS011;848;48.354;10.064;2024-03-23T10:10:45;2.30;;;1.20;;
1701;SDS011;848;48.354;10.064;2024-03-23T10:13:23;1.45;;;1.10;;
1701;SDS011;848;48.354;10.064;2024-03-23T10:15:54;1.60;;;0.60;;
1701;SDS011;848;48.354;10.064;2024-03-23T10:18:22;1.27;;;1.17;;
1701;SDS011;848;48.354;10.064;2024-03-23T10:20:50;2.15;;;1.35;;
1701;SDS011;848;48.354;10.064;2024-03-23T10:23:19;2.17;;;1.98;;
1701;SDS011;848;48.354;10.064;2024-03-23T10:25:47;2.03;;;1.88;;
1701;SDS011;848;48.354;10.064;2024-03-23T10:28:14;1.90;;;0.65;;
1701;SDS011;848;48.354;10.064;2024-03-23T10:30:40;0.80;;;0.73;;
1701;SDS011;848;48.354;10.064;2024-03-23T10:33:08;4.13;;;1.05;;
1701;SDS011;848;48.354;10.064;2024-03-23T10:35:34;1.40;;;1.35;;
1701;SDS011;848;48.354;10.064;2024-03-23T10:38:02;0.77;;;0.77;;
1701;SDS011;848;48.354;10.064;2024-03-23T10:42:56;2.47;;;1.75;;
1701;SDS011;848;48.354;10.064;2024-03-23T10:45:25;2.30;;;1.45;;
1701;SDS011;848;48.354;10.064;2024-03-23T10:47:51;1.60;;;1.50;;
1701;SDS011;848;48.354;10.064;2024-03-23T10:50:18;2.47;;;1.77;;
1701;SDS011;848;48.354;10.064;2024-03-23T10:52:45;4.63;;;1.25;;
1701;SDS011;848;48.354;10.064;2024-03-23T10:55:14;2.42;;;1.50;;
1701;SDS011;848;48.354;10.064;2024-03-23T10:57:43;2.10;;;1.50;;
1701;SDS011;848;48.354;10.064;2024-03-23T11:00:16;3.22;;;1.90;;
1701;SDS011;848;48.354;10.064;2024-03-23T11:02:42;4.10;;;1.13;;
1701;SDS011;848;48.354;10.064;2024-03-23T11:05:27;2.05;;;1.77;;
1701;SDS011;848;48.354;10.064;2024-03-23T11:07:54;5.78;;;1.70;;
1701;SDS011;848;48.354;10.064;2024-03-23T11:10:25;1.65;;;1.50;;
1701;SDS011;848;48.354;10.064;2024-03-23T11:12:51;3.15;;;1.85;;
1701;SDS011;848;48.354;10.064;2024-03-23T11:15:20;2.45;;;1.60;;
1701;SDS011;848;48.354;10.064;2024-03-23T11:20:33;2.35;;;1.25;;
1701;SDS011;848;48.354;10.064;2024-03-23T11:22:59;3.60;;;1.02;;
1701;SDS011;848;48.354;10.064;2024-03-23T11:25:26;2.22;;;1.40;;
1701;SDS011;848;48.354;10.064;2024-03-23T11:27:53;2.78;;;1.85;;
1701;SDS011;848;48.354;10.064;2024-03-23T11:30:23;5.25;;;1.70;;
1701;SDS011;848;48.354;10.064;2024-03-23T11:32:51;5.65;;;2.42;;
1701;SDS011;848;48.354;10.064;2024-03-23T11:35:26;1.90;;;1.75;;
1701;SDS011;848;48.354;10.064;2024-03-23T11:38:05;2.00;;;1.65;;
1701;SDS011;848;48.354;10.064;2024-03-23T11:40:33;4.57;;;1.75;;
1701;SDS011;848;48.354;10.064;2024-03-23T11:43:00;2.88;;;1.70;;
1701;SDS011;848;48.354;10.064;2024-03-23T11:45:33;5.13;;;2.72;;
1701;SDS011;848;48.354;10.064;2024-03-23T11:48:07;2.42;;;1.70;;
1701;SDS011;848;48.354;10.064;2024-03-23T11:50:36;3.00;;;1.13;;
1701;SDS011;848;48.354;10.064;2024-03-23T11:53:12;1.80;;;1.40;;
1701;SDS011;848;48.354;10.064;2024-03-23T11:55:47;4.32;;;1.83;;
1701;SDS011;848;48.354;10.064;2024-03-23T11:58:14;4.65;;;2.00;;
1701;SDS011;848;48.354;10.064;2024-03-23T12:00:48;6.27;;;2.47;;
1701;SDS011;848;48.354;10.064;2024-03-23T12:03:16;5.50;;;2.00;;
1701;SDS011;848;48.354;10.064;2024-03-23T12:05:47;1.42;;;1.33;;
1701;SDS011;848;48.354;10.064;2024-03-23T12:08:15;5.57;;;1.45;;
1701;SDS011;848;48.354;10.064;2024-03-23T12:10:43;6.93;;;1.88;;
1701;SDS011;848;48.354;10.064;2024-03-23T12:13:11;3.00;;;1.30;;
1701;SDS011;848;48.354;10.064;2024-03-23T12:15:37;1.38;;;0.57;;
1701;SDS011;848;48.354;10.064;2024-03-23T12:18:08;0.93;;;0.83;;
1701;SDS011;848;48.354;10.064;2024-03-23T12:20:35;0.50;;;0.40;;
1701;SDS011;848;48.354;10.064;2024-03-23T12:23:09;0.40;;;0.40;;
1701;SDS011;848;48.354;10.064;2024-03-23T12:25:37;0.40;;;0.30;;
1701;SDS011;848;48.354;10.064;2024-03-23T12:28:03;4.78;;;1.35;;
1701;SDS011;848;48.354;10.064;2024-03-23T12:30:32;2.47;;;1.00;;
1701;SDS011;848;48.354;10.064;2024-03-23T12:32:59;25.10;;;1.55;;
1701;SDS011;848;48.354;10.064;2024-03-23T12:35:27;1.10;;;0.40;;
1701;SDS011;848;48.354;10.064;2024-03-23T12:37:53;2.90;;;0.70;;
1701;SDS011;848;48.354;10.064;2024-03-23T12:40:20;3.05;;;0.73;;
1701;SDS011;848;48.354;10.064;2024-03-23T12:42:46;4.43;;;0.87;;
1701;SDS011;848;48.354;10.064;2024-03-23T12:45:13;2.50;;;0.90;;
1701;SDS011;848;48.354;10.064;2024-03-23T12:47:39;2.05;;;0.73;;
1701;SDS011;848;48.354;10.064;2024-03-23T12:50:07;2.40;;;1.42;;
1701;SDS011;848;48.354;10.064;2024-03-23T12:52:36;2.15;;;1.33;;
1701;SDS011;848;48.354;10.064;2024-03-23T12:55:03;3.72;;;1.67;;
1701;SDS011;848;48.354;10.064;2024-03-23T12:57:30;4.75;;;1.00;;
1701;SDS011;848;48.354;10.064;2024-03-23T12:59:57;3.90;;;0.98;;
1701;SDS011;848;48.354;10.064;2024-03-23T13:02:24;1.55;;;1.08;;
1701;SDS011;848;48.354;10.064;2024-03-23T13:04:51;2.78;;;1.77;;
1701;SDS011;848;48.354;10.064;2024-03-23T13:07:18;1.83;;;1.08;;
1701;SDS011;848;48.354;10.064;2024-03-23T13:09:49;9.02;;;1.00;;
1701;SDS011;848;48.354;10.064;2024-03-23T13:12:15;1.45;;;1.35;;
1701;SDS011;848;48.354;10.064;2024-03-23T13:14:43;1.10;;;1.00;;
1701;SDS011;848;48.354;10.064;2024-03-23T13:17:09;3.35;;;1.23;;
1701;SDS011;848;48.354;10.064;2024-03-23T13:19:36;3.67;;;1.20;;
1701;SDS011;848;48.354;10.064;2024-03-23T13:22:03;5.03;;;1.27;;
1701;SDS011;848;48.354;10.064;2024-03-23T13:24:30;3.22;;;1.40;;
1701;SDS011;848;48.354;10.064;2024-03-23T13:26:58;4.53;;;1.27;;
1701;SDS011;848;48.354;10.064;2024-03-23T13:29:25;2.88;;;1.75;;
1701;SDS011;848;48.354;10.064;2024-03-23T13:31:51;5.43;;;1.93;;
1701;SDS011;848;48.354;10.064;2024-03-23T13:34:18;4.80;;;1.20;;
1701;SDS011;848;48.354;10.064;2024-03-23T13:36:45;1.85;;;0.95;;
1701;SDS011;848;48.354;10.064;2024-03-23T13:39:12;0.82;;;0.80;;
1701;SDS011;848;48.354;10.064;2024-03-23T13:41:40;4.22;;;1.20;;
1701;SDS011;848;48.354;10.064;2024-03-23T13:44:10;6.97;;;1.38;;
1701;SDS011;848;48.354;10.064;2024-03-23T13:46:37;4.30;;;1.13;;
1701;SDS011;848;48.354;10.064;2024-03-23T13:49:04;7.22;;;1.60;;
1701;SDS011;848;48.354;10.064;2024-03-23T13:51:31;4.15;;;1.52;;
1701;SDS011;848;48.354;10.064;2024-03-23T13:53:58;1.95;;;1.48;;
1701;SDS011;848;48.354;10.064;2024-03-23T13:56:26;2.35;;;1.80;;
1701;SDS011;848;48.354;10.064;2024-03-23T13:58:54;1.58;;;1.30;;
1701;SDS011;848;48.354;10.064;2024-03-23T14:01:21;6.65;;;1.80;;
1701;SDS011;848;48.354;10.064;2024-03-23T14:03:49;1.35;;;1.25;;
1701;SDS011;848;48.354;10.064;2024-03-23T14:06:15;4.78;;;1.75;;
1701;SDS011;848;48.354;10.064;2024-03-23T14:08:42;2.08;;;0.98;;
1701;SDS011;848;48.354;10.064;2024-03-23T14:11:08;3.15;;;1.33;;
1701;SDS011;848;48.354;10.064;2024-03-23T14:13:35;5.80;;;1.52;;
1701;SDS011;848;48.354;10.064;2024-03-23T14:16:02;2.38;;;1.02;;
1701;SDS011;848;48.354;10.064;2024-03-23T14:18:31;6.07;;;1.33;;
1701;SDS011;848;48.354;10.064;2024-03-23T14:20:57;0.90;;;0.90;;
1701;SDS011;848;48.354;10.064;2024-03-23T14:23:24;4.22;;;1.67;;
1701;SDS011;848;48.354;10.064;2024-03-23T14:25:55;3.80;;;1.63;;
1701;SDS011;848;48.354;10.064;2024-03-23T14:28:21;4.70;;;1.77;;
1701;SDS011;848;48.354;10.064;2024-03-23T14:30:49;9.38;;;1.88;;
1701;SDS011;848;48.354;10.064;2024-03-23T14:33:15;3.95;;;1.33;;
1701;SDS011;848;48.354;10.064;2024-03-23T14:35:51;1.17;;;1.00;;
1701;SDS011;848;48.354;10.064;2024-03-23T14:38:18;2.72;;;0.60;;
1701;SDS011;848;48.354;10.064;2024-03-23T14:40:44;7.70;;;1.02;;
1701;SDS011;848;48.354;10.064;2024-03-23T14:43:10;6.13;;;2.73;;
1701;SDS011;848;48.354;10.064;2024-03-23T14:45:45;16.15;;;7.18;;
1701;SDS011;848;48.354;10.064;2024-03-23T14:48:29;1.60;;;0.98;;
1701;SDS011;848;48.354;10.064;2024-03-23T14:50:58;4.00;;;0.75;;
1701;SDS011;848;48.354;10.064;2024-03-23T14:53:24;4.00;;;1.25;;
1701;SDS011;848;48.354;10.064;2024-03-23T14:55:52;2.60;;;1.17;;
1701;SDS011;848;48.354;10.064;2024-03-23T14:58:19;0.88;;;0.77;;
1701;SDS011;848;48.354;10.064;2024-03-23T15:00:47;0.60;;;0.60;;
1701;SDS011;848;48.354;10.064;2024-03-23T15:03:13;0.90;;;0.90;;
1701;SDS011;848;48.354;10.064;2024-03-23T15:05:40;4.00;;;2.15;;
1701;SDS011;848;48.354;10.064;2024-03-23T15:08:08;6.13;;;3.57;;
1701;SDS011;848;48.354;10.064;2024-03-23T15:10:36;5.40;;;2.40;;
1701;SDS011;848;48.354;10.064;2024-03-23T15:13:02;1.88;;;1.63;;
1701;SDS011;848;48.354;10.064;2024-03-23T15:15:29;5.00;;;1.80;;
1701;SDS011;848;48.354;10.064;2024-03-23T15:17:54;5.40;;;2.03;;
1701;SDS011;848;48.354;10.064;2024-03-23T15:20:21;3.30;;;1.48;;
1701;SDS011;848;48.354;10.064;2024-03-23T15:22:47;1.47;;;1.00;;
1701;SDS011;848;48.354;10.064;2024-03-23T15:25:15;2.20;;;0.70;;
1701;SDS011;848;48.354;10.064;2024-03-23T15:27:42;2.53;;;1.73;;
1701;SDS011;848;48.354;10.064;2024-03-23T15:30:09;1.00;;;0.80;;
1701;SDS011;848;48.354;10.064;2024-03-23T15:32:38;1.58;;;0.98;;
1701;SDS011;848;48.354;10.064;2024-03-23T15:35:05;6.82;;;1.25;;
1701;SDS011;848;48.354;10.064;2024-03-23T15:37:32;1.50;;;0.60;;
1701;SDS011;848;48.354;10.064;2024-03-23T15:40:00;2.20;;;0.88;;
1701;SDS011;848;48.354;10.064;2024-03-23T15:42:27;2.73;;;1.10;;
1701;SDS011;848;48.354;10.064;2024-03-23T15:44:54;0.40;;;0.40;;
1701;SDS011;848;48.354;10.064;2024-03-23T15:47:20;2.10;;;1.00;;
1701;SDS011;848;48.354;10.064;2024-03-23T15:49:48;3.03;;;0.80;;
1701;SDS011;848;48.354;10.064;2024-03-23T15:52:15;1.05;;;0.90;;
1701;SDS011;848;48.354;10.064;2024-03-23T15:54:42;2.45;;;0.90;;
1701;SDS011;848;48.354;10.064;2024-03-23T15:57:08;1.65;;;1.02;;
1701;SDS011;848;48.354;10.064;2024-03-23T15:59:37;1.85;;;0.80;;
1701;SDS011;848;48.354;10.064;2024-03-23T16:02:05;2.42;;;1.02;;
1701;SDS011;848;48.354;10.064;2024-03-23T16:04:32;0.70;;;0.52;;
1701;SDS011;848;48.354;10.064;2024-03-23T16:06:58;5.43;;;1.30;;
1701;SDS011;848;48.354;10.064;2024-03-23T16:09:25;0.47;;;0.40;;
1701;SDS011;848;48.354;10.064;2024-03-23T16:11:53;1.95;;;0.40;;
1701;SDS011;848;48.354;10.064;2024-03-23T16:14:20;3.35;;;0.65;;
1701;SDS011;848;48.354;10.064;2024-03-23T16:16:47;1.03;;;0.47;;
1701;SDS011;848;48.354;10.064;2024-03-23T16:19:14;1.83;;;0.50;;